createdAt,value
2022-11-07T00:00:02.365Z,10.46
2022-11-07T00:01:02.280Z,10.46
2022-11-07T00:02:02.780Z,10.46
2022-11-07T00:03:02.494Z,10.48
2022-11-07T00:04:02.801Z,10.50
2022-11-07T00:05:02.135Z,10.49
2022-11-07T00:06:02.325Z,10.51
2022-11-07T00:07:02.680Z,10.54
2022-11-07T00:08:02.381Z,10.54
2022-11-07T00:09:02.149Z,10.54
2022-11-07T00:10:02.430Z,10.54
2022-11-07T00:11:02.151Z,10.50
2022-11-07T00:12:03.261Z,10.49
2022-11-07T00:13:02.729Z,10.47
2022-11-07T00:14:03.011Z,10.47
2022-11-07T00:15:03.268Z,10.46
2022-11-07T00:16:03.274Z,10.46
2022-11-07T00:17:03.025Z,10.45
2022-11-07T00:18:03.067Z,10.45
2022-11-07T00:19:03.524Z,10.45
2022-11-07T00:20:02.945Z,10.45
2022-11-07T00:21:03.372Z,10.46
2022-11-07T00:22:02.723Z,10.44
2022-11-07T00:23:02.303Z,10.44
2022-11-07T00:24:02.775Z,10.45
2022-11-07T00:25:02.958Z,10.45
2022-11-07T00:26:02.454Z,10.43
2022-11-07T00:27:02.944Z,10.46
2022-11-07T00:28:02.566Z,10.46
2022-11-07T00:29:02.327Z,10.49
2022-11-07T00:30:02.836Z,10.50
2022-11-07T00:31:03.017Z,10.52
2022-11-07T00:32:03.154Z,10.56
2022-11-07T00:33:02.621Z,10.57
2022-11-07T00:34:02.979Z,10.56
2022-11-07T00:35:02.978Z,10.58
2022-11-07T00:36:02.825Z,10.57
2022-11-07T00:37:03.175Z,10.58
2022-11-07T00:38:02.965Z,10.57
2022-11-07T00:39:02.761Z,10.56
2022-11-07T00:40:02.649Z,10.55
2022-11-07T00:41:03.036Z,10.53
2022-11-07T00:42:03.300Z,10.53
2022-11-07T00:43:03.007Z,10.55
2022-11-07T00:44:03.442Z,10.55
2022-11-07T00:45:03.476Z,10.56
2022-11-07T00:46:02.982Z,10.56
2022-11-07T00:47:03.091Z,10.61
2022-11-07T00:48:02.896Z,10.61
2022-11-07T00:49:02.919Z,10.60
2022-11-07T00:50:02.516Z,10.58
2022-11-07T00:51:03.050Z,10.59
2022-11-07T00:52:02.499Z,10.61
2022-11-07T00:53:03.026Z,10.62
2022-11-07T00:54:02.799Z,10.62
2022-11-07T00:55:03.144Z,10.62
2022-11-07T00:56:02.614Z,10.63
2022-11-07T00:57:03.020Z,10.63
2022-11-07T00:58:03.449Z,10.63
2022-11-07T00:59:03.190Z,10.62
2022-11-07T01:00:03.587Z,10.62
2022-11-07T01:01:03.029Z,10.63
2022-11-07T01:02:02.633Z,10.64
2022-11-07T01:03:02.488Z,10.64
2022-11-07T01:04:03.039Z,10.67
2022-11-07T01:05:02.448Z,10.69
2022-11-07T01:06:02.887Z,10.69
2022-11-07T01:07:02.660Z,10.72
2022-11-07T01:08:03.076Z,10.74
2022-11-07T01:09:03.036Z,10.76
2022-11-07T01:10:03.202Z,10.76
2022-11-07T01:11:02.595Z,10.73
2022-11-07T01:12:03.007Z,10.74
2022-11-07T01:13:03.205Z,10.76
2022-11-07T01:14:02.987Z,10.75
2022-11-07T01:15:03.444Z,10.76
2022-11-07T01:16:03.137Z,10.76
2022-11-07T01:17:02.597Z,10.78
2022-11-07T01:18:03.072Z,10.78
2022-11-07T01:19:02.476Z,10.78
2022-11-07T01:20:02.807Z,10.82
2022-11-07T01:21:02.795Z,10.83
2022-11-07T01:22:03.145Z,10.85
2022-11-07T01:23:03.584Z,10.90
2022-11-07T01:24:03.219Z,10.92
2022-11-07T01:25:03.580Z,10.93
2022-11-07T01:26:03.322Z,10.97
2022-11-07T01:27:02.835Z,10.99
2022-11-07T01:28:03.256Z,10.98
2022-11-07T01:29:03.056Z,10.97
2022-11-07T01:30:03.086Z,10.98
2022-11-07T01:31:02.846Z,10.98
2022-11-07T01:32:03.131Z,10.98
2022-11-07T01:33:03.595Z,10.99
2022-11-07T01:34:03.256Z,11.00
2022-11-07T01:35:03.585Z,11.02
2022-11-07T01:36:06.055Z,11.01
2022-11-07T01:37:02.677Z,11.00
2022-11-07T01:38:03.114Z,11.00
2022-11-07T01:39:02.567Z,11.00
2022-11-07T01:40:02.888Z,11.00
2022-11-07T01:41:02.637Z,11.03
2022-11-07T01:42:02.931Z,11.02
2022-11-07T01:43:03.321Z,11.00
2022-11-07T01:44:02.876Z,11.01
2022-11-07T01:45:03.288Z,11.02
2022-11-07T01:46:03.013Z,11.02
2022-11-07T01:47:03.462Z,10.99
2022-11-07T01:48:03.835Z,10.99
2022-11-07T01:49:03.633Z,10.98
2022-11-07T01:50:03.306Z,10.97
2022-11-07T01:51:03.749Z,10.95
2022-11-07T01:52:03.458Z,10.97
2022-11-07T01:53:03.860Z,10.94
2022-11-07T01:54:03.273Z,10.84
2022-11-07T01:55:03.833Z,10.86
2022-11-07T01:56:03.457Z,10.82
2022-11-07T01:57:03.017Z,10.84
2022-11-07T01:58:02.682Z,10.84
2022-11-07T01:59:02.975Z,10.82
2022-11-07T02:00:02.693Z,10.73
2022-11-07T02:01:03.171Z,10.72
2022-11-07T02:02:02.657Z,10.72
2022-11-07T02:03:02.602Z,10.70
2022-11-07T02:04:02.418Z,10.68
2022-11-07T02:05:02.697Z,10.68
2022-11-07T02:06:02.431Z,10.68
2022-11-07T02:07:01.912Z,10.66
2022-11-07T02:08:01.654Z,10.67
2022-11-07T02:09:02.086Z,10.66
2022-11-07T02:10:01.798Z,10.64
2022-11-07T02:11:02.240Z,10.65
2022-11-07T02:12:02.538Z,10.65
2022-11-07T02:13:01.969Z,10.62
2022-11-07T02:14:02.331Z,10.64
2022-11-07T02:15:02.439Z,10.61
2022-11-07T02:16:01.986Z,10.53
2022-11-07T02:17:02.363Z,10.54
2022-11-07T02:18:02.127Z,10.52
2022-11-07T02:19:02.551Z,10.47
2022-11-07T02:20:02.394Z,10.47
2022-11-07T02:21:02.204Z,10.43
2022-11-07T02:22:02.562Z,10.42
2022-11-07T02:23:02.548Z,10.40
2022-11-07T02:24:02.316Z,10.36
2022-11-07T02:25:02.443Z,10.33
2022-11-07T02:26:02.812Z,10.26
2022-11-07T02:27:01.973Z,10.25
2022-11-07T02:28:01.895Z,10.23
2022-11-07T02:29:01.609Z,10.21
2022-11-07T02:30:01.982Z,10.18
2022-11-07T02:31:01.654Z,10.16
2022-11-07T02:32:01.789Z,10.16
2022-11-07T02:33:01.620Z,10.14
2022-11-07T02:34:01.917Z,10.15
2022-11-07T02:35:01.680Z,10.15
2022-11-07T02:36:02.038Z,10.15
2022-11-07T02:37:02.407Z,10.17
2022-11-07T02:38:02.317Z,10.19
2022-11-07T02:39:02.368Z,10.19
2022-11-07T02:40:02.092Z,10.17
2022-11-07T02:41:02.611Z,10.22
2022-11-07T02:42:02.458Z,10.26
2022-11-07T02:43:02.899Z,10.29
2022-11-07T02:44:02.931Z,10.29
2022-11-07T02:45:02.447Z,10.25
2022-11-07T02:46:02.945Z,10.28
2022-11-07T02:47:02.263Z,10.26
2022-11-07T02:48:02.230Z,10.26
2022-11-07T02:49:02.271Z,10.27
2022-11-07T02:50:01.786Z,10.29
2022-11-07T02:51:01.807Z,10.27
2022-11-07T02:52:02.156Z,10.26
2022-11-07T02:53:02.062Z,10.26
2022-11-07T02:54:01.752Z,10.29
2022-11-07T02:55:02.135Z,10.31
2022-11-07T02:56:01.900Z,10.33
2022-11-07T02:57:02.356Z,10.32
2022-11-07T02:58:02.025Z,10.31
2022-11-07T02:59:02.387Z,10.30
2022-11-07T03:00:02.114Z,10.29
2022-11-07T03:01:02.469Z,10.30
2022-11-07T03:02:02.732Z,10.30
2022-11-07T03:03:02.510Z,10.31
2022-11-07T03:04:02.302Z,10.33
2022-11-07T03:05:02.517Z,10.31
2022-11-07T03:06:02.161Z,10.36
2022-11-07T03:07:03.340Z,10.35
2022-11-07T03:08:02.933Z,10.35
2022-11-07T03:09:03.547Z,10.31
2022-11-07T03:10:03.055Z,10.32
2022-11-07T03:11:03.413Z,10.31
2022-11-07T03:12:02.434Z,10.31
2022-11-07T03:13:02.343Z,10.33
2022-11-07T03:14:02.704Z,10.33
2022-11-07T03:15:02.212Z,10.33
2022-11-07T03:16:02.667Z,10.33
2022-11-07T03:17:02.425Z,10.34
2022-11-07T03:18:02.382Z,10.33
2022-11-07T03:19:02.774Z,10.32
2022-11-07T03:20:02.325Z,10.30
2022-11-07T03:21:02.287Z,10.30
2022-11-07T03:22:03.453Z,10.31
2022-11-07T03:23:02.904Z,10.31
2022-11-07T03:24:03.435Z,10.29
2022-11-07T03:25:02.986Z,10.29
2022-11-07T03:26:03.449Z,10.33
2022-11-07T03:27:02.930Z,10.33
2022-11-07T03:28:02.358Z,10.35
2022-11-07T03:29:02.937Z,10.35
2022-11-07T03:30:02.456Z,10.37
2022-11-07T03:31:03.286Z,10.38
2022-11-07T03:32:03.073Z,10.39
2022-11-07T03:33:02.910Z,10.36
2022-11-07T03:34:03.229Z,10.39
2022-11-07T03:35:02.868Z,10.34
2022-11-07T03:36:03.365Z,10.36
2022-11-07T03:37:02.197Z,10.37
2022-11-07T03:38:02.487Z,10.37
2022-11-07T03:39:02.185Z,10.37
2022-11-07T03:40:02.419Z,10.40
2022-11-07T03:41:02.319Z,10.39
2022-11-07T03:42:02.698Z,10.40
2022-11-07T03:43:03.160Z,10.41
2022-11-07T03:44:02.922Z,10.40
2022-11-07T03:45:03.015Z,10.37
2022-11-07T03:46:02.785Z,10.36
2022-11-07T03:47:02.291Z,10.26
2022-11-07T03:48:02.584Z,10.27
2022-11-07T03:49:02.396Z,10.25
2022-11-07T03:50:02.720Z,10.17
2022-11-07T03:51:02.817Z,10.12
2022-11-07T03:52:02.855Z,10.12
2022-11-07T03:53:03.317Z,10.10
2022-11-07T03:54:03.136Z,9.98
2022-11-07T03:55:03.036Z,9.88
2022-11-07T03:56:02.832Z,9.89
2022-11-07T03:57:02.139Z,9.88
2022-11-07T03:58:02.719Z,9.83
2022-11-07T03:59:02.324Z,9.84
2022-11-07T04:00:02.689Z,9.79
2022-11-07T04:01:02.721Z,9.80
2022-11-07T04:02:02.179Z,9.81
2022-11-07T04:03:02.423Z,9.82
2022-11-07T04:04:01.862Z,9.85
2022-11-07T04:05:02.225Z,9.89
2022-11-07T04:06:01.800Z,9.86
2022-11-07T04:07:02.084Z,9.86
2022-11-07T04:08:02.320Z,9.83
2022-11-07T04:09:02.087Z,9.86
2022-11-07T04:10:02.454Z,9.84
2022-11-07T04:11:02.293Z,9.84
2022-11-07T04:12:02.585Z,9.80
2022-11-07T04:13:02.274Z,9.83
2022-11-07T04:14:02.301Z,9.85
2022-11-07T04:15:02.759Z,9.86
2022-11-07T04:16:02.515Z,9.89
2022-11-07T04:17:02.018Z,9.89
2022-11-07T04:18:02.010Z,9.89
2022-11-07T04:19:02.190Z,9.90
2022-11-07T04:20:02.242Z,9.90
2022-11-07T04:21:01.948Z,9.89
2022-11-07T04:22:02.385Z,9.89
2022-11-07T04:23:02.743Z,9.90
2022-11-07T04:24:02.233Z,9.91
2022-11-07T04:25:02.743Z,9.91
2022-11-07T04:26:02.467Z,9.91
2022-11-07T04:27:02.030Z,9.92
2022-11-07T04:28:01.749Z,9.97
2022-11-07T04:29:02.112Z,10.00
2022-11-07T04:30:01.987Z,10.02
2022-11-07T04:31:02.016Z,10.01
2022-11-07T04:32:02.667Z,10.02
2022-11-07T04:33:02.279Z,9.99
2022-11-07T04:34:02.522Z,9.95
2022-11-07T04:35:02.785Z,9.92
2022-11-07T04:36:02.286Z,9.92
2022-11-07T04:37:02.648Z,9.94
2022-11-07T04:38:03.024Z,9.93
2022-11-07T04:39:02.452Z,9.92
2022-11-07T04:40:02.692Z,9.92
2022-11-07T04:41:02.494Z,9.95
2022-11-07T04:42:02.020Z,9.89
2022-11-07T04:43:01.798Z,9.84
2022-11-07T04:44:02.111Z,9.80
2022-11-07T04:45:01.802Z,9.79
2022-11-07T04:46:01.905Z,9.79
2022-11-07T04:47:02.608Z,9.78
2022-11-07T04:48:02.036Z,9.78
2022-11-07T04:49:02.533Z,9.75
2022-11-07T04:50:02.022Z,9.72
2022-11-07T04:51:02.531Z,9.68
2022-11-07T04:52:02.667Z,9.64
2022-11-07T04:53:02.925Z,9.59
2022-11-07T04:54:02.363Z,9.62
2022-11-07T04:55:02.817Z,9.61
2022-11-07T04:56:02.879Z,9.58
2022-11-07T04:57:02.020Z,9.55
2022-11-07T04:58:01.765Z,9.51
2022-11-07T04:59:02.138Z,9.40
2022-11-07T05:00:01.962Z,9.33
2022-11-07T05:01:02.104Z,9.32
2022-11-07T05:02:02.795Z,9.30
2022-11-07T05:03:02.382Z,9.30
2022-11-07T05:04:02.533Z,9.25
2022-11-07T05:05:02.283Z,9.23
2022-11-07T05:06:02.463Z,9.26
2022-11-07T05:07:02.852Z,9.22
2022-11-07T05:08:02.361Z,9.20
2022-11-07T05:09:02.659Z,9.18
2022-11-07T05:10:02.944Z,9.16
2022-11-07T05:11:02.768Z,9.17
2022-11-07T05:12:02.163Z,9.18
2022-11-07T05:13:01.733Z,9.18
2022-11-07T05:14:02.050Z,9.16
2022-11-07T05:15:02.076Z,9.17
2022-11-07T05:16:02.393Z,9.17
2022-11-07T05:17:02.558Z,9.19
2022-11-07T05:18:02.219Z,9.20
2022-11-07T05:19:02.584Z,9.21
2022-11-07T05:20:02.550Z,9.19
2022-11-07T05:21:02.607Z,9.18
2022-11-07T05:22:02.847Z,9.15
2022-11-07T05:23:02.564Z,9.16
2022-11-07T05:24:02.986Z,9.15
2022-11-07T05:25:02.600Z,9.15
2022-11-07T05:26:03.028Z,9.13
2022-11-07T05:27:02.362Z,9.13
2022-11-07T05:28:02.149Z,9.14
2022-11-07T05:29:02.389Z,9.17
2022-11-07T05:30:02.153Z,9.20
2022-11-07T05:31:02.571Z,9.19
2022-11-07T05:32:02.730Z,9.19
2022-11-07T05:33:02.447Z,9.21
2022-11-07T05:34:02.840Z,9.24
2022-11-07T05:35:02.495Z,9.25
2022-11-07T05:36:02.752Z,9.29
2022-11-07T05:37:03.100Z,9.33
2022-11-07T05:38:02.889Z,9.36
2022-11-07T05:39:02.608Z,9.36
2022-11-07T05:40:02.992Z,9.41
2022-11-07T05:41:03.272Z,9.46
2022-11-07T05:42:02.475Z,9.49
2022-11-07T05:43:01.916Z,9.52
2022-11-07T05:44:01.920Z,9.57
2022-11-07T05:45:02.329Z,9.60
2022-11-07T05:46:01.937Z,9.63
2022-11-07T05:47:02.609Z,9.67
2022-11-07T05:48:02.427Z,9.69
2022-11-07T05:49:02.157Z,9.73
2022-11-07T05:50:02.182Z,9.76
2022-11-07T05:51:02.312Z,9.79
2022-11-07T05:52:02.491Z,9.81
2022-11-07T05:53:02.277Z,9.84
2022-11-07T05:54:02.490Z,9.85
2022-11-07T05:55:02.513Z,9.87
2022-11-07T05:56:02.507Z,9.88
2022-11-07T05:57:01.828Z,9.90
2022-11-07T05:58:06.873Z,9.92
2022-11-07T05:59:02.017Z,9.96
2022-11-07T06:00:02.552Z,9.99
2022-11-07T06:01:01.843Z,10.03
2022-11-07T06:02:03.129Z,10.04
2022-11-07T06:03:02.640Z,10.06
2022-11-07T06:04:02.730Z,10.07
2022-11-07T06:05:02.467Z,10.08
2022-11-07T06:06:02.884Z,10.10
2022-11-07T06:07:03.266Z,10.12
2022-11-07T06:08:02.752Z,10.12
2022-11-07T06:09:02.649Z,10.12
2022-11-07T06:10:02.671Z,10.14
2022-11-07T06:11:03.115Z,10.15
2022-11-07T06:12:01.875Z,10.17
2022-11-07T06:13:02.177Z,10.16
2022-11-07T06:14:02.040Z,10.15
2022-11-07T06:15:02.400Z,10.15
2022-11-07T06:16:01.874Z,10.14
2022-11-07T06:17:02.322Z,10.14
2022-11-07T06:18:02.476Z,10.15
2022-11-07T06:19:02.802Z,10.15
2022-11-07T06:20:02.868Z,10.14
2022-11-07T06:21:02.371Z,10.14
2022-11-07T06:22:02.367Z,10.12
2022-11-07T06:23:02.716Z,10.12
2022-11-07T06:24:03.486Z,10.11
2022-11-07T06:25:02.596Z,10.10
2022-11-07T06:26:02.653Z,10.11
2022-11-07T06:27:02.796Z,10.12
2022-11-07T06:28:02.831Z,10.14
2022-11-07T06:29:02.784Z,10.14
2022-11-07T06:30:02.848Z,10.16
2022-11-07T06:31:02.798Z,10.17
2022-11-07T06:32:03.200Z,10.21
2022-11-07T06:33:03.085Z,10.24
2022-11-07T06:34:02.668Z,10.27
2022-11-07T06:35:02.741Z,10.31
2022-11-07T06:36:02.632Z,10.34
2022-11-07T06:37:03.641Z,10.35
2022-11-07T06:38:02.813Z,10.39
2022-11-07T06:39:02.829Z,10.41
2022-11-07T06:40:03.301Z,10.43
2022-11-07T06:41:03.092Z,10.46
2022-11-07T06:42:02.580Z,10.49
2022-11-07T06:43:02.055Z,10.53
2022-11-07T06:44:02.545Z,10.57
2022-11-07T06:45:02.305Z,10.63
2022-11-07T06:46:01.947Z,10.65
2022-11-07T06:47:02.340Z,10.71
2022-11-07T06:48:02.243Z,10.72
2022-11-07T06:49:02.260Z,10.76
2022-11-07T06:50:02.320Z,10.79
2022-11-07T06:51:02.509Z,10.84
2022-11-07T06:52:02.393Z,10.86
2022-11-07T06:53:02.761Z,10.91
2022-11-07T06:54:02.648Z,10.94
2022-11-07T06:55:02.503Z,10.99
2022-11-07T06:56:02.928Z,11.00
2022-11-07T06:57:02.048Z,11.03
2022-11-07T06:58:02.538Z,11.07
2022-11-07T06:59:02.458Z,11.11
2022-11-07T07:00:02.031Z,11.15
2022-11-07T07:01:02.405Z,11.18
2022-11-07T07:02:02.485Z,11.20
2022-11-07T07:03:02.407Z,11.22
2022-11-07T07:04:02.353Z,11.24
2022-11-07T07:05:02.273Z,11.27
2022-11-07T07:06:02.365Z,11.27
2022-11-07T07:07:02.604Z,11.31
2022-11-07T07:08:02.637Z,11.33
2022-11-07T07:09:02.990Z,11.32
2022-11-07T07:10:02.584Z,11.34
2022-11-07T07:11:02.656Z,11.37
2022-11-07T07:12:02.729Z,11.39
2022-11-07T07:13:02.949Z,11.42
2022-11-07T07:14:02.811Z,11.46
2022-11-07T07:15:02.937Z,11.50
2022-11-07T07:16:03.020Z,11.53
2022-11-07T07:17:02.848Z,11.57
2022-11-07T07:18:03.094Z,11.58
2022-11-07T07:19:03.246Z,11.61
2022-11-07T07:20:02.823Z,11.62
2022-11-07T07:21:02.744Z,11.63
2022-11-07T07:22:02.379Z,11.64
2022-11-07T07:23:05.672Z,11.66
2022-11-07T07:24:02.375Z,11.67
2022-11-07T07:25:02.277Z,11.70
2022-11-07T07:26:02.465Z,11.72
2022-11-07T07:27:02.074Z,11.74
2022-11-07T07:28:02.004Z,11.77
2022-11-07T07:29:02.443Z,11.80
2022-11-07T07:30:02.376Z,11.82
2022-11-07T07:31:01.948Z,11.84
2022-11-07T07:32:02.277Z,11.87
2022-11-07T07:33:02.124Z,11.92
2022-11-07T07:34:02.526Z,11.95
2022-11-07T07:35:02.400Z,11.96
2022-11-07T07:36:02.383Z,11.98
2022-11-07T07:37:02.274Z,11.99
2022-11-07T07:38:02.132Z,12.01
2022-11-07T07:39:02.349Z,12.03
2022-11-07T07:40:02.489Z,12.04
2022-11-07T07:41:02.720Z,12.07
2022-11-07T07:42:02.795Z,12.11
2022-11-07T07:43:02.927Z,12.14
2022-11-07T07:44:02.482Z,12.19
2022-11-07T07:45:02.599Z,12.22
2022-11-07T07:46:02.590Z,12.22
2022-11-07T07:47:04.921Z,12.22
2022-11-07T07:48:02.231Z,12.22
2022-11-07T07:49:02.670Z,12.26
2022-11-07T07:50:02.779Z,12.30
2022-11-07T07:51:02.431Z,12.33
2022-11-07T07:52:02.981Z,12.36
2022-11-07T07:53:08.649Z,12.38
2022-11-07T07:54:03.078Z,12.41
2022-11-07T07:55:02.782Z,12.43
2022-11-07T07:56:02.671Z,12.45
2022-11-07T07:57:03.001Z,12.44
2022-11-07T07:58:02.772Z,12.47
2022-11-07T07:59:03.040Z,12.47
2022-11-07T08:00:03.275Z,12.48
2022-11-07T08:01:03.013Z,12.45
2022-11-07T08:02:03.380Z,12.44
2022-11-07T08:03:03.184Z,12.44
2022-11-07T08:04:03.509Z,12.43
2022-11-07T08:05:02.913Z,12.46
2022-11-07T08:06:02.930Z,12.47
2022-11-07T08:07:02.618Z,12.50
2022-11-07T08:08:02.446Z,12.52
2022-11-07T08:09:02.802Z,12.51
2022-11-07T08:10:26.932Z,12.52
2022-11-07T08:11:02.431Z,12.54
2022-11-07T08:12:02.943Z,12.56
2022-11-07T08:13:03.049Z,12.57
2022-11-07T08:14:03.009Z,12.57
2022-11-07T08:15:03.203Z,12.61
2022-11-07T08:16:02.706Z,12.64
2022-11-07T08:17:03.472Z,12.66
2022-11-07T08:18:03.710Z,12.66
2022-11-07T08:19:03.393Z,12.69
2022-11-07T08:20:03.585Z,12.73
2022-11-07T08:21:03.383Z,12.75
2022-11-07T08:22:03.093Z,12.70
2022-11-07T08:23:02.862Z,12.70
2022-11-07T08:24:02.919Z,12.69
2022-11-07T08:25:02.881Z,12.67
2022-11-07T08:26:02.659Z,12.70
2022-11-07T08:27:03.381Z,12.71
2022-11-07T08:28:03.395Z,12.72
2022-11-07T08:29:03.428Z,12.73
2022-11-07T08:30:03.165Z,12.75
2022-11-07T08:31:03.490Z,12.75
2022-11-07T08:32:03.449Z,12.77
2022-11-07T08:33:03.368Z,12.78
2022-11-07T08:34:03.429Z,12.81
2022-11-07T08:35:03.409Z,12.82
2022-11-07T08:36:03.309Z,12.84
2022-11-07T08:37:03.533Z,12.85
2022-11-07T08:38:03.357Z,12.87
2022-11-07T08:39:03.211Z,12.91
2022-11-07T08:40:03.104Z,12.95
2022-11-07T08:41:03.414Z,12.97
2022-11-07T08:42:03.178Z,13.00
2022-11-07T08:43:02.710Z,13.02
2022-11-07T08:44:02.990Z,13.03
2022-11-07T08:45:03.091Z,13.05
2022-11-07T08:46:02.673Z,13.07
2022-11-07T08:47:08.272Z,13.10
2022-11-07T08:48:03.254Z,13.10
2022-11-07T08:49:03.237Z,13.12
2022-11-07T08:50:03.440Z,13.13
2022-11-07T08:51:03.420Z,13.14
2022-11-07T08:52:02.672Z,13.15
2022-11-07T08:53:03.309Z,13.18
2022-11-07T08:54:02.387Z,13.21
2022-11-07T08:55:02.716Z,13.26
2022-11-07T08:56:02.607Z,13.29
2022-11-07T08:57:03.240Z,13.34
2022-11-07T08:58:02.831Z,13.38
2022-11-07T08:59:02.875Z,13.42
2022-11-07T09:00:03.226Z,13.46
2022-11-07T09:01:03.151Z,13.51
2022-11-07T09:03:39.249Z,13.59
2022-11-07T09:04:02.654Z,13.66
2022-11-07T09:05:02.845Z,13.68
2022-11-07T09:06:02.558Z,13.69
2022-11-07T09:07:02.899Z,13.69
2022-11-07T09:08:03.198Z,13.70
2022-11-07T09:09:03.045Z,13.69
2022-11-07T09:10:03.144Z,13.69
2022-11-07T09:11:03.013Z,13.71
2022-11-07T09:12:02.976Z,13.73
2022-11-07T09:13:02.859Z,13.74
2022-11-07T09:14:02.602Z,13.76
2022-11-07T09:15:02.642Z,13.79
2022-11-07T09:16:02.660Z,13.80
2022-11-07T09:17:02.623Z,13.81
2022-11-07T09:18:02.722Z,13.81
2022-11-07T09:19:02.667Z,13.82
2022-11-07T09:20:03.145Z,13.83
2022-11-07T09:21:02.841Z,13.83
2022-11-07T09:22:03.146Z,13.84
2022-11-07T09:23:03.232Z,13.88
2022-11-07T09:24:03.180Z,13.90
2022-11-07T09:25:03.067Z,13.94
2022-11-07T09:26:02.994Z,13.97
2022-11-07T09:27:02.421Z,14.00
2022-11-07T09:28:02.377Z,14.04
2022-11-07T09:29:02.953Z,14.06
2022-11-07T09:30:02.469Z,14.10
2022-11-07T09:31:02.969Z,14.13
2022-11-07T09:32:17.527Z,14.16
2022-11-07T09:33:03.092Z,14.21
2022-11-07T09:34:02.956Z,14.25
2022-11-07T09:35:05.058Z,14.30
2022-11-07T09:36:03.215Z,14.33
2022-11-07T09:37:02.195Z,14.36
2022-11-07T09:38:02.708Z,14.38
2022-11-07T09:39:02.255Z,14.38
2022-11-07T09:40:02.427Z,14.39
2022-11-07T09:41:02.263Z,14.40
2022-11-07T09:42:02.299Z,14.41
2022-11-07T09:43:02.433Z,14.41
2022-11-07T09:44:04.600Z,14.42
2022-11-07T09:45:02.281Z,14.43
2022-11-07T09:46:02.439Z,14.46
2022-11-07T09:47:02.505Z,14.49
2022-11-07T09:48:02.873Z,14.53
2022-11-07T09:49:02.547Z,14.54
2022-11-07T09:50:02.471Z,14.56
2022-11-07T09:51:02.768Z,14.56
2022-11-07T09:52:03.196Z,14.56
2022-11-07T09:53:03.089Z,14.52
2022-11-07T09:54:02.922Z,14.53
2022-11-07T09:55:02.855Z,14.51
2022-11-07T09:56:02.893Z,14.50
2022-11-07T09:57:02.447Z,14.48
2022-11-07T09:58:02.656Z,14.48
2022-11-07T09:59:02.494Z,14.48
2022-11-07T10:00:02.603Z,14.49
2022-11-07T10:01:02.515Z,14.48
2022-11-07T10:02:03.945Z,14.48
2022-11-07T10:03:03.602Z,14.46
2022-11-07T10:04:24.186Z,14.46
2022-11-07T10:05:03.622Z,14.45
2022-11-07T10:06:03.525Z,14.45
2022-11-07T10:07:02.760Z,14.46
2022-11-07T10:08:02.664Z,14.48
2022-11-07T10:09:02.908Z,14.50
2022-11-07T10:10:03.125Z,14.53
2022-11-07T10:11:03.024Z,14.55
2022-11-07T10:12:03.223Z,14.57
2022-11-07T10:13:02.884Z,14.61
2022-11-07T10:14:02.778Z,14.65
2022-11-07T10:15:02.730Z,14.70
2022-11-07T10:16:02.839Z,14.76
2022-11-07T10:17:03.319Z,14.83
2022-11-07T10:18:03.289Z,14.89
2022-11-07T10:19:03.627Z,14.92
2022-11-07T10:20:03.188Z,14.94
2022-11-07T10:21:31.276Z,14.93
2022-11-07T10:22:03.513Z,14.91
2022-11-07T10:23:03.757Z,14.89
2022-11-07T10:24:03.567Z,14.89
2022-11-07T10:25:03.353Z,14.89
2022-11-07T10:26:03.359Z,14.87
2022-11-07T10:27:03.108Z,14.88
2022-11-07T10:28:03.234Z,14.88
2022-11-07T10:29:03.282Z,14.87
2022-11-07T10:30:03.253Z,14.88
2022-11-07T10:31:03.009Z,14.87
2022-11-07T10:32:02.725Z,14.85
2022-11-07T10:33:02.566Z,14.85
2022-11-07T10:34:02.937Z,14.87
2022-11-07T10:35:02.940Z,14.86
2022-11-07T10:36:02.897Z,14.84
2022-11-07T10:37:02.855Z,14.79
2022-11-07T10:38:02.838Z,14.76
2022-11-07T10:39:03.022Z,14.75
2022-11-07T10:40:03.782Z,14.76
2022-11-07T10:41:02.925Z,14.78
2022-11-07T10:42:03.202Z,14.81
2022-11-07T10:43:03.246Z,14.84
2022-11-07T10:44:03.061Z,14.88
2022-11-07T10:45:03.077Z,14.92
2022-11-07T10:46:03.064Z,14.95
2022-11-07T10:47:03.483Z,14.97
2022-11-07T10:48:03.802Z,15.00
2022-11-07T10:49:03.485Z,15.03
2022-11-07T10:50:03.821Z,15.06
2022-11-07T10:51:03.489Z,15.07
2022-11-07T10:52:02.929Z,15.07
2022-11-07T10:53:02.834Z,15.08
2022-11-07T10:54:02.830Z,15.11
2022-11-07T10:55:02.815Z,15.16
2022-11-07T10:56:02.765Z,15.22
2022-11-07T10:57:03.246Z,15.27
2022-11-07T10:58:03.294Z,15.31
2022-11-07T10:59:03.100Z,15.36
2022-11-07T11:00:02.994Z,15.38
2022-11-07T11:01:03.084Z,15.42
2022-11-07T11:02:02.821Z,15.43
2022-11-07T11:03:02.729Z,15.44
2022-11-07T11:04:02.931Z,15.47
2022-11-07T11:05:02.402Z,15.50
2022-11-07T11:06:02.964Z,15.51
2022-11-07T11:07:02.465Z,15.54
2022-11-07T11:08:02.298Z,15.55
2022-11-07T11:09:02.198Z,15.54
2022-11-07T11:10:02.629Z,15.52
2022-11-07T11:11:02.083Z,15.51
2022-11-07T11:12:02.670Z,15.47
2022-11-07T11:13:02.469Z,15.48
2022-11-07T11:14:02.832Z,15.47
2022-11-07T11:15:02.553Z,15.45
2022-11-07T11:16:05.719Z,15.44
2022-11-07T11:17:02.788Z,15.41
2022-11-07T11:18:02.718Z,15.41
2022-11-07T11:19:02.456Z,15.40
2022-11-07T11:20:02.339Z,15.41
2022-11-07T11:21:02.721Z,15.43
2022-11-07T11:22:07.232Z,15.46
2022-11-07T11:23:02.455Z,15.50
2022-11-07T11:24:02.550Z,15.56
2022-11-07T11:25:02.324Z,15.63
2022-11-07T11:26:02.561Z,15.71
2022-11-07T11:27:02.514Z,15.79
2022-11-07T11:28:02.410Z,15.89
2022-11-07T11:29:02.394Z,15.98
2022-11-07T11:30:02.402Z,16.03
2022-11-07T11:31:02.470Z,16.04
2022-11-07T11:32:02.695Z,16.04
2022-11-07T11:33:02.635Z,16.04
2022-11-07T11:34:02.752Z,16.06
2022-11-07T11:35:02.725Z,16.06
2022-11-07T11:36:02.393Z,16.06
2022-11-07T11:37:03.109Z,16.06
2022-11-07T11:38:03.023Z,16.05
2022-11-07T11:39:03.205Z,16.06
2022-11-07T11:40:02.666Z,16.08
2022-11-07T11:41:09.346Z,16.09
2022-11-07T11:42:03.281Z,16.13
2022-11-07T11:43:03.006Z,16.17
2022-11-07T11:44:03.389Z,16.22
2022-11-07T11:45:03.287Z,16.28
2022-11-07T11:46:03.304Z,16.34
2022-11-07T11:47:03.031Z,16.42
2022-11-07T11:48:02.648Z,16.48
2022-11-07T11:49:02.709Z,16.53
2022-11-07T11:50:02.793Z,16.57
2022-11-07T11:51:02.716Z,16.59
2022-11-07T11:52:03.330Z,16.61
2022-11-07T11:53:03.197Z,16.59
2022-11-07T11:54:03.296Z,16.57
2022-11-07T11:55:03.350Z,16.56
2022-11-07T11:56:03.144Z,16.52
2022-11-07T11:57:02.893Z,16.51
2022-11-07T11:58:02.649Z,16.52
2022-11-07T11:59:02.551Z,16.54
2022-11-07T12:00:02.362Z,16.56
2022-11-07T12:01:02.377Z,16.55
2022-11-07T12:02:03.474Z,16.52
2022-11-07T12:03:03.349Z,16.50
2022-11-07T12:04:07.000Z,16.47
2022-11-07T12:05:03.358Z,16.48
2022-11-07T12:06:03.394Z,16.49
2022-11-07T12:07:03.683Z,16.49
2022-11-07T12:08:03.672Z,16.49
2022-11-07T12:09:03.657Z,16.40
2022-11-07T12:10:03.152Z,16.31
2022-11-07T12:11:03.209Z,16.25
2022-11-07T12:12:02.349Z,16.19
2022-11-07T12:13:02.799Z,16.13
2022-11-07T12:14:02.643Z,16.08
2022-11-07T12:15:02.391Z,16.02
2022-11-07T12:16:02.443Z,15.97
2022-11-07T12:17:02.937Z,15.96
2022-11-07T12:18:02.974Z,15.96
2022-11-07T12:19:03.528Z,15.97
2022-11-07T12:20:03.010Z,15.98
2022-11-07T12:21:03.481Z,16.02
2022-11-07T12:22:03.240Z,16.05
2022-11-07T12:23:02.840Z,16.07
2022-11-07T12:24:02.582Z,16.08
2022-11-07T12:25:02.471Z,16.09
2022-11-07T12:26:02.400Z,16.07
2022-11-07T12:27:02.549Z,16.07
2022-11-07T12:28:03.387Z,16.06
2022-11-07T12:29:03.208Z,16.06
2022-11-07T12:30:03.128Z,16.07
2022-11-07T12:31:03.149Z,16.09
2022-11-07T12:32:03.191Z,16.10
2022-11-07T12:33:02.599Z,16.08
2022-11-07T12:34:02.590Z,16.08
2022-11-07T12:35:02.790Z,16.09
2022-11-07T12:36:02.842Z,16.07
2022-11-07T12:37:02.460Z,16.04
2022-11-07T12:38:03.225Z,16.03
2022-11-07T12:39:03.225Z,16.03
2022-11-07T12:40:03.250Z,16.01
2022-11-07T12:41:03.239Z,16.00
2022-11-07T12:42:03.499Z,15.99
2022-11-07T12:43:03.446Z,15.99
2022-11-07T12:44:03.355Z,15.99
2022-11-07T12:45:03.362Z,16.03
2022-11-07T12:46:03.285Z,16.07
2022-11-07T12:47:03.031Z,16.12
2022-11-07T12:48:03.558Z,16.16
2022-11-07T12:49:03.157Z,16.19
2022-11-07T12:50:03.263Z,16.16
2022-11-07T12:51:03.141Z,16.12
2022-11-07T12:52:03.198Z,16.11
2022-11-07T12:53:03.624Z,16.10
2022-11-07T12:54:03.309Z,16.10
2022-11-07T12:55:03.809Z,16.10
2022-11-07T12:56:03.284Z,16.11
2022-11-07T12:57:03.263Z,16.13